createdAt,value
2018-11-06T00:05:03.288Z,10.20
2018-11-06T00:10:07.936Z,10.20
2018-11-06T00:15:12.111Z,10.10
2018-11-06T00:20:16.612Z,10.10
2018-11-06T00:25:27.481Z,10.10
2018-11-06T00:30:31.929Z,10.10
2018-11-06T00:35:36.349Z,10.00
2018-11-06T00:40:40.893Z,9.90
2018-11-06T00:45:45.329Z,9.80
2018-11-06T00:50:49.769Z,9.80
2018-11-06T00:55:54.232Z,9.70
2018-11-06T01:00:58.705Z,9.70
2018-11-06T01:06:03.181Z,9.60
2018-11-06T01:11:07.655Z,9.60
2018-11-06T01:16:12.124Z,9.60
2018-11-06T01:21:16.548Z,9.50
2018-11-06T01:26:20.996Z,9.50
2018-11-06T01:31:25.549Z,9.40
2018-11-06T01:36:30.005Z,9.40
2018-11-06T01:41:34.428Z,9.30
2018-11-06T01:46:38.853Z,9.30
2018-11-06T01:51:43.440Z,9.20
2018-11-06T01:56:47.868Z,9.20
2018-11-06T02:01:52.328Z,9.20
2018-11-06T02:06:56.756Z,9.20
2018-11-06T02:12:01.197Z,9.20
2018-11-06T02:17:05.672Z,9.20
2018-11-06T02:22:10.097Z,9.20
2018-11-06T02:27:14.533Z,9.20
2018-11-06T02:32:19.298Z,9.30
2018-11-06T02:37:23.843Z,9.30
2018-11-06T02:42:28.269Z,9.30
2018-11-06T02:47:32.684Z,9.30
2018-11-06T02:52:37.249Z,9.30
2018-11-06T02:57:42.121Z,9.30
2018-11-06T03:02:47.698Z,9.20
2018-11-06T03:07:52.141Z,9.20
2018-11-06T03:12:56.570Z,9.10
2018-11-06T03:18:00.990Z,9.10
2018-11-06T03:23:05.452Z,9.10
2018-11-06T03:28:09.877Z,9.10
2018-11-06T03:33:14.359Z,9.10
2018-11-06T03:38:18.772Z,9.10
2018-11-06T03:43:23.204Z,9.10
2018-11-06T03:48:27.644Z,9.10
2018-11-06T03:53:32.081Z,9.10
2018-11-06T03:58:36.501Z,9.10
2018-11-06T04:03:41.056Z,9.00
2018-11-06T04:08:45.473Z,8.90
2018-11-06T04:13:49.917Z,8.90
2018-11-06T04:18:54.344Z,8.80
2018-11-06T04:23:58.771Z,8.80
2018-11-06T04:29:03.733Z,8.70
2018-11-06T04:34:08.958Z,8.70
2018-11-06T04:39:13.424Z,8.70
2018-11-06T04:44:17.865Z,8.70
2018-11-06T04:49:22.668Z,8.80
2018-11-06T04:54:27.089Z,8.80
2018-11-06T04:59:31.540Z,9.00
2018-11-06T05:04:36.038Z,9.00
2018-11-06T05:09:40.501Z,9.00
2018-11-06T05:14:45.148Z,9.10
2018-11-06T05:19:49.567Z,9.10
2018-11-06T05:24:54.006Z,9.10
2018-11-06T05:29:58.431Z,9.10
2018-11-06T05:35:02.955Z,9.10
2018-11-06T05:40:24.454Z,9.10
2018-11-06T05:45:29.152Z,9.10
2018-11-06T05:50:33.696Z,9.00
2018-11-06T05:55:38.293Z,8.90
2018-11-06T06:00:42.929Z,8.80
2018-11-06T06:05:47.289Z,8.60
2018-11-06T06:10:51.744Z,8.50
2018-11-06T06:15:56.269Z,8.50
2018-11-06T06:21:00.688Z,8.40
2018-11-06T06:26:05.242Z,8.30
2018-11-06T06:31:09.672Z,8.40
2018-11-06T06:36:14.217Z,8.30
2018-11-06T06:41:18.639Z,8.40
2018-11-06T06:46:23.141Z,8.30
2018-11-06T06:51:27.621Z,8.30
2018-11-06T06:56:32.075Z,8.30
2018-11-06T07:01:36.535Z,8.20
2018-11-06T07:06:40.981Z,8.20
2018-11-06T07:11:45.928Z,8.20
2018-11-06T07:16:50.368Z,8.20
2018-11-06T07:21:54.807Z,8.30
2018-11-06T07:26:59.321Z,8.30
2018-11-06T07:32:03.850Z,8.40
2018-11-06T07:37:08.293Z,8.50
2018-11-06T07:42:12.776Z,8.60
2018-11-06T07:47:17.275Z,8.70
2018-11-06T07:52:21.793Z,8.80
2018-11-06T07:57:26.568Z,8.90
2018-11-06T08:02:31.012Z,9.10
2018-11-06T08:07:35.464Z,9.10
2018-11-06T08:12:41.308Z,9.40
2018-11-06T08:17:46.352Z,9.50
2018-11-06T08:22:50.914Z,9.80
2018-11-06T08:27:55.478Z,10.00
2018-11-06T08:32:59.938Z,10.10
2018-11-06T08:38:04.377Z,10.30
2018-11-06T08:43:08.813Z,10.50
2018-11-06T08:48:13.258Z,10.70
2018-11-06T08:53:17.774Z,10.80
2018-11-06T08:58:22.362Z,11.00
2018-11-06T09:03:26.811Z,11.20
2018-11-06T09:08:31.261Z,11.40
2018-11-06T09:13:35.708Z,11.60
2018-11-06T09:18:40.192Z,11.70
2018-11-06T09:23:44.622Z,11.90
2018-11-06T09:28:49.065Z,12.10
2018-11-06T09:33:53.505Z,12.30
2018-11-06T09:38:57.981Z,12.40
2018-11-06T09:44:02.404Z,12.60
2018-11-06T09:49:07.711Z,12.80
2018-11-06T09:54:12.218Z,13.00
2018-11-06T09:59:16.729Z,13.20
2018-11-06T10:04:21.241Z,13.40
2018-11-06T10:09:25.730Z,13.70
2018-11-06T10:14:30.343Z,14.00
2018-11-06T10:19:34.788Z,14.30
2018-11-06T10:24:39.224Z,14.70
2018-11-06T10:29:43.712Z,15.00
2018-11-06T10:34:48.225Z,15.30
2018-11-06T10:39:52.676Z,15.60
2018-11-06T10:44:57.125Z,15.80
2018-11-06T10:50:01.640Z,16.10
2018-11-06T10:55:07.396Z,16.30
2018-11-06T11:00:18.553Z,16.50
2018-11-06T11:05:24.813Z,16.70
2018-11-06T11:10:29.270Z,16.80
2018-11-06T11:15:33.700Z,17.00
2018-11-06T11:20:38.330Z,17.00
2018-11-06T11:25:42.812Z,17.20
2018-11-06T11:30:47.274Z,17.30
2018-11-06T11:35:51.704Z,17.40
2018-11-06T11:40:56.173Z,17.60
2018-11-06T11:46:00.759Z,17.80
2018-11-06T11:51:05.582Z,17.90
2018-11-06T11:56:10.077Z,17.70
2018-11-06T12:01:14.584Z,17.90
2018-11-06T12:06:19.045Z,18.10
2018-11-06T12:11:23.594Z,18.20
2018-11-06T12:16:28.125Z,18.30
2018-11-06T12:21:32.594Z,18.40
2018-11-06T12:26:37.052Z,18.40
2018-11-06T12:31:41.513Z,18.30
2018-11-06T12:36:46.028Z,18.30
2018-11-06T12:41:50.509Z,18.30
2018-11-06T12:46:55.018Z,18.10
2018-11-06T12:51:59.585Z,18.00
2018-11-06T12:57:04.116Z,18.10
2018-11-06T13:02:08.795Z,17.90
2018-11-06T13:07:13.746Z,17.90
2018-11-06T13:12:18.533Z,17.80
2018-11-06T13:17:23.205Z,17.60
2018-11-06T13:22:27.753Z,17.50
2018-11-06T13:27:32.212Z,17.40
2018-11-06T13:32:36.927Z,17.40
2018-11-06T13:37:41.484Z,17.30
2018-11-06T13:42:46.530Z,17.20
2018-11-06T13:47:51.073Z,17.00
2018-11-06T13:52:55.523Z,16.80
2018-11-06T13:58:00.002Z,16.60
2018-11-06T14:03:04.498Z,16.40
2018-11-06T14:08:08.937Z,16.20
2018-11-06T14:13:13.413Z,16.10
2018-11-06T14:18:17.960Z,15.90
2018-11-06T14:23:22.652Z,15.80
2018-11-06T14:28:27.103Z,15.70
2018-11-06T14:33:31.545Z,15.60
2018-11-06T14:38:36.086Z,15.50
2018-11-06T14:43:40.537Z,15.40
2018-11-06T14:48:45.112Z,15.30
2018-11-06T14:53:49.450Z,15.10
2018-11-06T14:58:53.969Z,15.00
2018-11-06T15:03:58.416Z,14.70
2018-11-06T15:09:02.905Z,14.50
2018-11-06T15:14:07.406Z,14.20
2018-11-06T15:19:11.853Z,14.00
2018-11-06T15:24:16.303Z,13.80
2018-11-06T15:29:20.776Z,13.60
2018-11-06T15:34:25.262Z,13.40
2018-11-06T15:39:29.738Z,13.20
2018-11-06T15:44:34.289Z,13.10
2018-11-06T15:49:38.826Z,13.00
2018-11-06T15:54:43.369Z,12.80
2018-11-06T15:59:47.896Z,12.60
2018-11-06T16:04:52.374Z,12.50
2018-11-06T16:09:56.817Z,12.30
2018-11-06T16:15:01.349Z,12.20
2018-11-06T16:20:07.597Z,12.10
2018-11-06T16:25:13.795Z,11.90
2018-11-06T16:30:19.944Z,11.80
2018-11-06T16:35:24.521Z,11.70
2018-11-06T16:40:29.062Z,11.60
2018-11-06T16:45:33.569Z,11.60
2018-11-06T16:50:38.100Z,11.60
2018-11-06T16:55:42.596Z,11.50
2018-11-06T17:00:47.195Z,11.50
2018-11-06T17:05:51.572Z,11.40
2018-11-06T17:10:56.051Z,11.40
2018-11-06T17:16:00.513Z,11.30
2018-11-06T17:21:04.969Z,11.30
2018-11-06T17:26:09.468Z,11.30
2018-11-06T17:31:13.981Z,11.30
2018-11-06T17:36:18.544Z,11.30
2018-11-06T17:41:22.977Z,11.30
2018-11-06T17:46:27.493Z,11.20
2018-11-06T17:51:31.919Z,11.20
2018-11-06T17:56:36.353Z,11.20
2018-11-06T18:01:42.138Z,11.30
2018-11-06T18:06:46.681Z,11.30
2018-11-06T18:11:51.124Z,11.30
2018-11-06T18:16:55.585Z,11.20
2018-11-06T18:22:00.085Z,11.10
2018-11-06T18:27:04.621Z,11.00
2018-11-06T18:32:09.086Z,10.90
2018-11-06T18:37:13.545Z,10.80
2018-11-06T18:42:17.981Z,10.70
2018-11-06T18:47:22.490Z,10.60
2018-11-06T18:52:27.005Z,10.50
2018-11-06T18:57:31.564Z,10.50
2018-11-06T19:02:43.992Z,10.50
2018-11-06T19:07:48.747Z,10.50
2018-11-06T19:12:53.260Z,10.40
2018-11-06T19:17:57.750Z,10.50
2018-11-06T19:23:02.226Z,10.50
2018-11-06T19:28:07.221Z,10.40
2018-11-06T19:33:11.659Z,10.40
2018-11-06T19:38:16.112Z,10.40
2018-11-06T19:43:20.606Z,10.40
2018-11-06T19:48:25.123Z,10.50
2018-11-06T19:53:29.968Z,10.50
2018-11-06T19:58:34.411Z,10.50
2018-11-06T20:03:39.012Z,10.50
2018-11-06T20:08:43.409Z,10.50
2018-11-06T20:13:47.932Z,10.50
2018-11-06T20:18:52.376Z,10.50
2018-11-06T20:23:56.843Z,10.40
2018-11-06T20:29:01.282Z,10.40
2018-11-06T20:34:05.829Z,10.30
2018-11-06T20:39:11.254Z,10.20
2018-11-06T20:44:15.706Z,10.10
2018-11-06T20:49:20.244Z,10.10
2018-11-06T20:54:24.686Z,10.10
2018-11-06T20:59:29.165Z,10.10
2018-11-06T21:04:33.609Z,10.00
2018-11-06T21:09:38.041Z,10.00
2018-11-06T21:14:42.629Z,10.00
2018-11-06T21:19:47.154Z,10.10
2018-11-06T21:24:51.637Z,10.20
2018-11-06T21:29:56.054Z,10.20
2018-11-06T21:35:00.513Z,10.30
2018-11-06T21:40:05.839Z,10.20
2018-11-06T21:45:11.564Z,10.20
2018-11-06T21:50:16.750Z,10.20
2018-11-06T21:55:21.236Z,10.20
2018-11-06T22:00:25.878Z,10.20
2018-11-06T22:05:30.318Z,10.20
2018-11-06T22:10:34.748Z,10.10
2018-11-06T22:15:39.184Z,10.20
2018-11-06T22:20:43.652Z,10.10
2018-11-06T22:25:48.093Z,10.10
2018-11-06T22:30:52.529Z,10.10
2018-11-06T22:35:56.964Z,10.00
2018-11-06T22:41:01.405Z,10.10
2018-11-06T22:46:06.033Z,10.10
2018-11-06T22:51:10.545Z,10.10
2018-11-06T22:56:14.976Z,10.10
2018-11-06T23:01:24.046Z,10.00
2018-11-06T23:06:28.521Z,10.10
2018-11-06T23:11:32.960Z,10.00
2018-11-06T23:16:37.396Z,10.00
2018-11-06T23:21:41.872Z,10.00
2018-11-06T23:26:46.305Z,9.90
2018-11-06T23:31:50.740Z,9.90
2018-11-06T23:36:55.177Z,9.80
2018-11-06T23:41:59.627Z,9.80
2018-11-06T23:47:04.049Z,9.80
2018-11-06T23:52:08.605Z,9.80
2018-11-06T23:57:13.043Z,9.70
